sensor_id;sensor_type;location;lat;lon;timestamp;P1;durP1;ratioP1;P2;durP2;ratioP2
9100;SDS011;4586;52.518;13.486;2022-12-07T00:00:26;2.47;;;1.57;;
9100;SDS011;4586;52.518;13.486;2022-12-07T00:04:27;3.00;;;1.93;;
9100;SDS011;4586;52.518;13.486;2022-12-07T00:08:28;3.70;;;2.23;;
9100;SDS011;4586;52.518;13.486;2022-12-07T00:12:30;6.03;;;3.07;;
9100;SDS011;4586;52.518;13.486;2022-12-07T00:16:31;4.60;;;2.30;;
9100;SDS011;4586;52.518;13.486;2022-12-07T00:20:33;3.60;;;2.63;;
9100;SDS011;4586;52.518;13.486;2022-12-07T00:24:34;3.50;;;2.37;;
9100;SDS011;4586;52.518;13.486;2022-12-07T00:28:35;3.60;;;2.47;;
9100;SDS011;4586;52.518;13.486;2022-12-07T00:32:36;4.70;;;2.70;;
9100;SDS011;4586;52.518;13.486;2022-12-07T00:36:37;5.83;;;2.33;;
9100;SDS011;4586;52.518;13.486;2022-12-07T00:40:38;4.13;;;2.87;;
9100;SDS011;4586;52.518;13.486;2022-12-07T00:44:39;4.70;;;2.83;;
9100;SDS011;4586;52.518;13.486;2022-12-07T00:48:40;3.77;;;2.93;;
9100;SDS011;4586;52.518;13.486;2022-12-07T00:52:41;3.97;;;2.23;;
9100;SDS011;4586;52.518;13.486;2022-12-07T00:56:42;4.17;;;2.73;;
9100;SDS011;4586;52.518;13.486;2022-12-07T01:00:43;4.17;;;2.70;;
9100;SDS011;4586;52.518;13.486;2022-12-07T01:04:44;3.93;;;2.23;;
9100;SDS011;4586;52.518;13.486;2022-12-07T01:08:45;4.53;;;2.60;;
9100;SDS011;4586;52.518;13.486;2022-12-07T01:12:46;3.53;;;2.40;;
9100;SDS011;4586;52.518;13.486;2022-12-07T01:16:47;4.37;;;2.63;;
9100;SDS011;4586;52.518;13.486;2022-12-07T01:21:10;2.87;;;2.20;;
9100;SDS011;4586;52.518;13.486;2022-12-07T01:25:10;5.13;;;2.73;;
9100;SDS011;4586;52.518;13.486;2022-12-07T01:29:12;5.87;;;3.57;;
9100;SDS011;4586;52.518;13.486;2022-12-07T01:33:13;4.50;;;2.97;;
9100;SDS011;4586;52.518;13.486;2022-12-07T01:37:14;4.47;;;2.67;;
9100;SDS011;4586;52.518;13.486;2022-12-07T01:41:15;5.20;;;3.20;;
9100;SDS011;4586;52.518;13.486;2022-12-07T01:49:42;4.33;;;2.30;;
9100;SDS011;4586;52.518;13.486;2022-12-07T01:53:44;2.63;;;1.93;;
9100;SDS011;4586;52.518;13.486;2022-12-07T01:57:47;2.10;;;1.60;;
9100;SDS011;4586;52.518;13.486;2022-12-07T02:01:49;2.57;;;1.57;;
9100;SDS011;4586;52.518;13.486;2022-12-07T02:05:50;2.43;;;2.23;;
9100;SDS011;4586;52.518;13.486;2022-12-07T02:09:52;3.40;;;1.97;;
9100;SDS011;4586;52.518;13.486;2022-12-07T02:13:53;4.30;;;1.87;;
9100;SDS011;4586;52.518;13.486;2022-12-07T02:22:00;3.67;;;2.40;;
9100;SDS011;4586;52.518;13.486;2022-12-07T02:26:13;2.80;;;2.27;;
9100;SDS011;4586;52.518;13.486;2022-12-07T02:30:20;2.83;;;2.27;;
9100;SDS011;4586;52.518;13.486;2022-12-07T02:34:42;2.67;;;1.60;;
9100;SDS011;4586;52.518;13.486;2022-12-07T02:39:00;1.70;;;1.50;;
9100;SDS011;4586;52.518;13.486;2022-12-07T02:43:07;2.13;;;1.63;;
9100;SDS011;4586;52.518;13.486;2022-12-07T02:47:10;2.73;;;1.50;;
9100;SDS011;4586;52.518;13.486;2022-12-07T02:51:13;3.70;;;2.17;;
9100;SDS011;4586;52.518;13.486;2022-12-07T02:55:14;3.10;;;2.07;;
9100;SDS011;4586;52.518;13.486;2022-12-07T03:03:23;3.23;;;2.33;;
9100;SDS011;4586;52.518;13.486;2022-12-07T03:07:26;2.77;;;2.10;;
9100;SDS011;4586;52.518;13.486;2022-12-07T03:11:33;4.57;;;2.47;;
9100;SDS011;4586;52.518;13.486;2022-12-07T03:15:42;3.33;;;2.17;;
9100;SDS011;4586;52.518;13.486;2022-12-07T03:19:44;3.57;;;2.23;;
9100;SDS011;4586;52.518;13.486;2022-12-07T03:23:47;4.17;;;2.07;;
9100;SDS011;4586;52.518;13.486;2022-12-07T03:27:54;2.73;;;1.97;;
9100;SDS011;4586;52.518;13.486;2022-12-07T03:32:02;3.23;;;1.87;;
9100;SDS011;4586;52.518;13.486;2022-12-07T03:36:08;2.50;;;1.80;;
9100;SDS011;4586;52.518;13.486;2022-12-07T03:44:15;4.50;;;2.50;;
9100;SDS011;4586;52.518;13.486;2022-12-07T03:48:28;4.10;;;2.60;;
9100;SDS011;4586;52.518;13.486;2022-12-07T03:52:34;2.97;;;2.30;;
9100;SDS011;4586;52.518;13.486;2022-12-07T03:56:36;3.43;;;2.30;;
9100;SDS011;4586;52.518;13.486;2022-12-07T04:00:37;3.27;;;2.50;;
9100;SDS011;4586;52.518;13.486;2022-12-07T04:04:39;4.00;;;2.77;;
9100;SDS011;4586;52.518;13.486;2022-12-07T04:08:40;2.63;;;1.67;;
9100;SDS011;4586;52.518;13.486;2022-12-07T04:12:41;3.10;;;2.37;;
9100;SDS011;4586;52.518;13.486;2022-12-07T04:16:42;7.83;;;3.23;;
9100;SDS011;4586;52.518;13.486;2022-12-07T04:20:43;3.57;;;2.50;;
9100;SDS011;4586;52.518;13.486;2022-12-07T04:24:44;5.03;;;3.37;;
9100;SDS011;4586;52.518;13.486;2022-12-07T04:28:45;2.30;;;1.80;;
9100;SDS011;4586;52.518;13.486;2022-12-07T04:32:46;2.97;;;2.33;;
9100;SDS011;4586;52.518;13.486;2022-12-07T04:36:47;5.13;;;2.43;;
9100;SDS011;4586;52.518;13.486;2022-12-07T04:40:48;5.37;;;3.10;;
9100;SDS011;4586;52.518;13.486;2022-12-07T04:44:49;4.70;;;2.10;;
9100;SDS011;4586;52.518;13.486;2022-12-07T04:48:51;6.47;;;3.50;;
9100;SDS011;4586;52.518;13.486;2022-12-07T04:52:52;5.77;;;3.73;;
9100;SDS011;4586;52.518;13.486;2022-12-07T04:56:53;5.63;;;3.73;;
9100;SDS011;4586;52.518;13.486;2022-12-07T05:00:55;6.30;;;3.70;;
9100;SDS011;4586;52.518;13.486;2022-12-07T05:04:56;4.77;;;3.50;;
9100;SDS011;4586;52.518;13.486;2022-12-07T05:08:57;7.67;;;4.37;;
9100;SDS011;4586;52.518;13.486;2022-12-07T05:12:58;8.90;;;4.80;;
9100;SDS011;4586;52.518;13.486;2022-12-07T05:16:59;6.20;;;3.50;;
9100;SDS011;4586;52.518;13.486;2022-12-07T05:21:00;8.27;;;5.20;;
9100;SDS011;4586;52.518;13.486;2022-12-07T05:25:01;6.20;;;3.77;;
9100;SDS011;4586;52.518;13.486;2022-12-07T05:29:02;7.47;;;4.20;;
9100;SDS011;4586;52.518;13.486;2022-12-07T05:33:03;4.97;;;3.27;;
9100;SDS011;4586;52.518;13.486;2022-12-07T05:37:04;7.47;;;4.43;;
9100;SDS011;4586;52.518;13.486;2022-12-07T05:41:06;7.70;;;4.17;;
9100;SDS011;4586;52.518;13.486;2022-12-07T05:45:07;8.90;;;4.87;;
9100;SDS011;4586;52.518;13.486;2022-12-07T05:49:09;6.07;;;4.10;;
9100;SDS011;4586;52.518;13.486;2022-12-07T05:53:10;9.20;;;5.03;;
9100;SDS011;4586;52.518;13.486;2022-12-07T05:57:11;5.00;;;3.63;;
9100;SDS011;4586;52.518;13.486;2022-12-07T06:01:12;8.63;;;4.97;;
9100;SDS011;4586;52.518;13.486;2022-12-07T06:05:13;8.63;;;5.57;;
9100;SDS011;4586;52.518;13.486;2022-12-07T06:09:14;10.77;;;5.80;;
9100;SDS011;4586;52.518;13.486;2022-12-07T06:13:16;10.17;;;4.97;;
9100;SDS011;4586;52.518;13.486;2022-12-07T06:17:17;9.03;;;4.73;;
9100;SDS011;4586;52.518;13.486;2022-12-07T06:21:18;10.13;;;5.00;;
9100;SDS011;4586;52.518;13.486;2022-12-07T06:25:19;13.23;;;5.23;;
9100;SDS011;4586;52.518;13.486;2022-12-07T06:29:20;9.17;;;4.77;;
9100;SDS011;4586;52.518;13.486;2022-12-07T06:33:21;10.13;;;4.90;;
9100;SDS011;4586;52.518;13.486;2022-12-07T06:37:22;6.07;;;3.53;;
9100;SDS011;4586;52.518;13.486;2022-12-07T06:41:23;4.97;;;2.90;;
9100;SDS011;4586;52.518;13.486;2022-12-07T06:45:24;6.90;;;4.60;;
9100;SDS011;4586;52.518;13.486;2022-12-07T06:49:25;7.53;;;4.57;;
9100;SDS011;4586;52.518;13.486;2022-12-07T06:53:26;5.37;;;3.43;;
9100;SDS011;4586;52.518;13.486;2022-12-07T06:57:27;5.57;;;3.80;;
9100;SDS011;4586;52.518;13.486;2022-12-07T07:01:28;8.57;;;3.87;;
9100;SDS011;4586;52.518;13.486;2022-12-07T07:05:29;7.90;;;5.37;;
9100;SDS011;4586;52.518;13.486;2022-12-07T07:09:30;7.30;;;4.23;;
9100;SDS011;4586;52.518;13.486;2022-12-07T07:13:31;8.67;;;4.33;;
9100;SDS011;4586;52.518;13.486;2022-12-07T07:17:32;8.30;;;4.50;;
9100;SDS011;4586;52.518;13.486;2022-12-07T07:21:33;6.07;;;3.73;;
9100;SDS011;4586;52.518;13.486;2022-12-07T07:25:34;10.50;;;5.90;;
9100;SDS011;4586;52.518;13.486;2022-12-07T07:29:35;6.50;;;3.53;;
9100;SDS011;4586;52.518;13.486;2022-12-07T07:33:36;6.43;;;2.40;;
9100;SDS011;4586;52.518;13.486;2022-12-07T07:37:37;5.57;;;3.20;;
9100;SDS011;4586;52.518;13.486;2022-12-07T07:41:38;4.90;;;3.33;;
9100;SDS011;4586;52.518;13.486;2022-12-07T07:45:45;3.50;;;2.33;;
9100;SDS011;4586;52.518;13.486;2022-12-07T07:49:46;4.90;;;2.70;;
9100;SDS011;4586;52.518;13.486;2022-12-07T07:53:47;7.30;;;3.00;;
9100;SDS011;4586;52.518;13.486;2022-12-07T07:57:48;8.80;;;3.60;;
9100;SDS011;4586;52.518;13.486;2022-12-07T08:01:49;7.13;;;3.57;;
9100;SDS011;4586;52.518;13.486;2022-12-07T08:05:50;3.63;;;2.20;;
9100;SDS011;4586;52.518;13.486;2022-12-07T08:09:51;4.53;;;1.67;;
9100;SDS011;4586;52.518;13.486;2022-12-07T08:13:52;4.10;;;2.63;;
9100;SDS011;4586;52.518;13.486;2022-12-07T08:17:53;4.03;;;2.50;;
9100;SDS011;4586;52.518;13.486;2022-12-07T08:21:55;2.27;;;1.33;;
9100;SDS011;4586;52.518;13.486;2022-12-07T08:25:59;3.87;;;2.50;;
9100;SDS011;4586;52.518;13.486;2022-12-07T08:30:01;4.33;;;1.53;;
9100;SDS011;4586;52.518;13.486;2022-12-07T08:34:02;3.40;;;2.00;;
9100;SDS011;4586;52.518;13.486;2022-12-07T08:38:03;1.63;;;1.50;;
9100;SDS011;4586;52.518;13.486;2022-12-07T08:42:04;4.33;;;2.53;;
9100;SDS011;4586;52.518;13.486;2022-12-07T08:50:21;1.57;;;1.13;;
9100;SDS011;4586;52.518;13.486;2022-12-07T08:54:22;0.73;;;0.50;;
9100;SDS011;4586;52.518;13.486;2022-12-07T08:58:24;1.07;;;0.97;;
9100;SDS011;4586;52.518;13.486;2022-12-07T09:02:25;1.37;;;0.80;;
9100;SDS011;4586;52.518;13.486;2022-12-07T09:06:27;1.80;;;1.00;;
9100;SDS011;4586;52.518;13.486;2022-12-07T09:10:31;0.90;;;0.80;;
9100;SDS011;4586;52.518;13.486;2022-12-07T09:14:32;2.47;;;0.57;;
9100;SDS011;4586;52.518;13.486;2022-12-07T09:18:33;1.33;;;1.10;;
9100;SDS011;4586;52.518;13.486;2022-12-07T09:22:34;0.57;;;0.57;;
9100;SDS011;4586;52.518;13.486;2022-12-07T09:26:35;1.70;;;1.00;;
9100;SDS011;4586;52.518;13.486;2022-12-07T09:30:36;0.67;;;0.67;;
9100;SDS011;4586;52.518;13.486;2022-12-07T09:34:37;0.67;;;0.67;;
9100;SDS011;4586;52.518;13.486;2022-12-07T09:38:38;0.70;;;0.70;;
9100;SDS011;4586;52.518;13.486;2022-12-07T09:42:41;0.80;;;0.80;;
9100;SDS011;4586;52.518;13.486;2022-12-07T09:46:43;2.67;;;1.10;;
9100;SDS011;4586;52.518;13.486;2022-12-07T09:50:46;0.80;;;0.80;;
9100;SDS011;4586;52.518;13.486;2022-12-07T09:54:48;0.97;;;0.43;;
9100;SDS011;4586;52.518;13.486;2022-12-07T09:58:58;1.70;;;1.23;;
9100;SDS011;4586;52.518;13.486;2022-12-07T10:02:59;1.03;;;0.73;;
9100;SDS011;4586;52.518;13.486;2022-12-07T10:07:01;1.00;;;0.70;;
9100;SDS011;4586;52.518;13.486;2022-12-07T10:11:02;0.70;;;0.50;;
9100;SDS011;4586;52.518;13.486;2022-12-07T10:15:03;3.20;;;2.17;;
9100;SDS011;4586;52.518;13.486;2022-12-07T10:23:21;0.70;;;0.57;;
9100;SDS011;4586;52.518;13.486;2022-12-07T10:27:26;0.83;;;0.70;;
9100;SDS011;4586;52.518;13.486;2022-12-07T10:31:29;0.60;;;0.60;;
9100;SDS011;4586;52.518;13.486;2022-12-07T10:35:30;0.80;;;0.80;;
9100;SDS011;4586;52.518;13.486;2022-12-07T10:39:31;0.50;;;0.50;;
9100;SDS011;4586;52.518;13.486;2022-12-07T10:48:37;1.10;;;0.80;;
9100;SDS011;4586;52.518;13.486;2022-12-07T10:56:45;1.03;;;0.70;;
9100;SDS011;4586;52.518;13.486;2022-12-07T11:13:41;2.20;;;1.73;;
9100;SDS011;4586;52.518;13.486;2022-12-07T11:26:51;0.80;;;0.80;;
9100;SDS011;4586;52.518;13.486;2022-12-07T11:39:25;5.27;;;1.07;;
9100;SDS011;4586;52.518;13.486;2022-12-07T11:43:28;1.07;;;0.97;;
9100;SDS011;4586;52.518;13.486;2022-12-07T11:47:45;3.37;;;2.00;;
9100;SDS011;4586;52.518;13.486;2022-12-07T11:51:48;2.03;;;1.27;;
9100;SDS011;4586;52.518;13.486;2022-12-07T12:21:27;0.37;;;0.27;;
9100;SDS011;4586;52.518;13.486;2022-12-07T12:29:50;0.97;;;0.83;;
9100;SDS011;4586;52.518;13.486;2022-12-07T12:33:57;1.03;;;0.97;;
9100;SDS011;4586;52.518;13.486;2022-12-07T12:46:54;0.77;;;0.77;;
9100;SDS011;4586;52.518;13.486;2022-12-07T12:55:15;1.30;;;1.00;;
9100;SDS011;4586;52.518;13.486;2022-12-07T13:03:26;1.97;;;1.30;;
9100;SDS011;4586;52.518;13.486;2022-12-07T13:41:27;2.13;;;1.10;;
9100;SDS011;4586;52.518;13.486;2022-12-07T14:07:18;0.70;;;0.70;;
9100;SDS011;4586;52.518;13.486;2022-12-07T14:15:37;1.20;;;0.90;;
9100;SDS011;4586;52.518;13.486;2022-12-07T14:28:09;0.77;;;0.77;;
9100;SDS011;4586;52.518;13.486;2022-12-07T14:45:21;0.53;;;0.53;;
9100;SDS011;4586;52.518;13.486;2022-12-07T15:15:02;4.27;;;1.10;;
9100;SDS011;4586;52.518;13.486;2022-12-07T15:31:44;1.13;;;0.60;;
9100;SDS011;4586;52.518;13.486;2022-12-07T15:40:03;0.70;;;0.53;;
9100;SDS011;4586;52.518;13.486;2022-12-07T15:52:26;1.60;;;1.00;;
9100;SDS011;4586;52.518;13.486;2022-12-07T16:00:41;0.87;;;0.70;;
9100;SDS011;4586;52.518;13.486;2022-12-07T16:21:40;0.87;;;0.83;;
9100;SDS011;4586;52.518;13.486;2022-12-07T16:25:41;0.40;;;0.40;;
9100;SDS011;4586;52.518;13.486;2022-12-07T16:55:00;0.20;;;0.20;;
9100;SDS011;4586;52.518;13.486;2022-12-07T17:24:51;2.67;;;1.50;;
9100;SDS011;4586;52.518;13.486;2022-12-07T17:33:03;0.80;;;0.80;;
9100;SDS011;4586;52.518;13.486;2022-12-07T17:41:19;1.50;;;0.83;;
9100;SDS011;4586;52.518;13.486;2022-12-07T17:49:38;1.60;;;0.80;;
9100;SDS011;4586;52.518;13.486;2022-12-07T17:53:39;3.07;;;1.10;;
9100;SDS011;4586;52.518;13.486;2022-12-07T17:57:40;2.07;;;0.70;;
9100;SDS011;4586;52.518;13.486;2022-12-07T18:01:41;1.57;;;1.10;;
9100;SDS011;4586;52.518;13.486;2022-12-07T18:05:42;1.43;;;0.60;;
9100;SDS011;4586;52.518;13.486;2022-12-07T18:09:43;1.00;;;0.70;;
9100;SDS011;4586;52.518;13.486;2022-12-07T18:13:45;2.30;;;1.00;;
9100;SDS011;4586;52.518;13.486;2022-12-07T18:17:46;0.70;;;0.70;;
9100;SDS011;4586;52.518;13.486;2022-12-07T18:21:47;0.60;;;0.60;;
9100;SDS011;4586;52.518;13.486;2022-12-07T18:25:48;2.50;;;1.20;;
9100;SDS011;4586;52.518;13.486;2022-12-07T18:29:49;1.10;;;0.60;;
9100;SDS011;4586;52.518;13.486;2022-12-07T18:33:50;1.63;;;1.40;;
9100;SDS011;4586;52.518;13.486;2022-12-07T18:37:51;7.97;;;1.47;;
9100;SDS011;4586;52.518;13.486;2022-12-07T18:41:52;2.47;;;0.93;;
9100;SDS011;4586;52.518;13.486;2022-12-07T18:45:53;2.80;;;1.30;;
9100;SDS011;4586;52.518;13.486;2022-12-07T18:49:54;3.33;;;1.50;;
9100;SDS011;4586;52.518;13.486;2022-12-07T18:57:57;0.53;;;0.53;;
9100;SDS011;4586;52.518;13.486;2022-12-07T19:02:05;0.80;;;0.70;;
9100;SDS011;4586;52.518;13.486;2022-12-07T19:06:06;0.97;;;0.90;;
9100;SDS011;4586;52.518;13.486;2022-12-07T19:18:22;1.23;;;1.13;;
9100;SDS011;4586;52.518;13.486;2022-12-07T19:22:24;1.67;;;1.30;;
9100;SDS011;4586;52.518;13.486;2022-12-07T19:26:25;2.83;;;1.40;;
9100;SDS011;4586;52.518;13.486;2022-12-07T19:30:26;1.70;;;1.13;;
9100;SDS011;4586;52.518;13.486;2022-12-07T19:34:27;2.07;;;1.30;;
9100;SDS011;4586;52.518;13.486;2022-12-07T19:42:37;1.70;;;1.13;;
9100;SDS011;4586;52.518;13.486;2022-12-07T19:50:49;3.87;;;1.63;;
9100;SDS011;4586;52.518;13.486;2022-12-07T19:54:50;4.40;;;1.70;;
9100;SDS011;4586;52.518;13.486;2022-12-07T19:58:51;2.97;;;1.67;;
9100;SDS011;4586;52.518;13.486;2022-12-07T20:02:53;1.10;;;1.00;;
9100;SDS011;4586;52.518;13.486;2022-12-07T20:06:55;2.00;;;1.40;;
9100;SDS011;4586;52.518;13.486;2022-12-07T20:10:57;2.97;;;1.10;;
9100;SDS011;4586;52.518;13.486;2022-12-07T20:14:58;2.23;;;1.50;;
9100;SDS011;4586;52.518;13.486;2022-12-07T20:18:59;1.70;;;1.50;;
9100;SDS011;4586;52.518;13.486;2022-12-07T20:23:00;2.30;;;1.47;;
9100;SDS011;4586;52.518;13.486;2022-12-07T20:31:29;2.53;;;1.23;;
9100;SDS011;4586;52.518;13.486;2022-12-07T20:35:30;5.00;;;1.43;;
9100;SDS011;4586;52.518;13.486;2022-12-07T20:39:35;2.30;;;1.33;;
9100;SDS011;4586;52.518;13.486;2022-12-07T20:43:36;3.33;;;1.50;;
9100;SDS011;4586;52.518;13.486;2022-12-07T20:47:37;6.40;;;3.67;;
9100;SDS011;4586;52.518;13.486;2022-12-07T20:51:38;3.30;;;1.23;;
9100;SDS011;4586;52.518;13.486;2022-12-07T20:55:39;3.00;;;1.47;;
9100;SDS011;4586;52.518;13.486;2022-12-07T20:59:40;2.40;;;1.50;;
9100;SDS011;4586;52.518;13.486;2022-12-07T21:03:41;2.03;;;1.40;;
9100;SDS011;4586;52.518;13.486;2022-12-07T21:07:42;4.83;;;1.63;;
9100;SDS011;4586;52.518;13.486;2022-12-07T21:11:43;2.47;;;1.40;;
9100;SDS011;4586;52.518;13.486;2022-12-07T21:15:44;2.33;;;1.80;;
9100;SDS011;4586;52.518;13.486;2022-12-07T21:19:45;2.67;;;1.53;;
9100;SDS011;4586;52.518;13.486;2022-12-07T21:23:48;2.43;;;1.63;;
9100;SDS011;4586;52.518;13.486;2022-12-07T21:27:49;1.20;;;1.10;;
9100;SDS011;4586;52.518;13.486;2022-12-07T21:31:50;2.87;;;1.70;;
9100;SDS011;4586;52.518;13.486;2022-12-07T21:35:51;3.77;;;1.53;;
9100;SDS011;4586;52.518;13.486;2022-12-07T21:39:52;2.43;;;1.73;;
9100;SDS011;4586;52.518;13.486;2022-12-07T21:43:53;6.00;;;2.23;;
9100;SDS011;4586;52.518;13.486;2022-12-07T21:47:54;3.23;;;1.60;;
9100;SDS011;4586;52.518;13.486;2022-12-07T21:51:55;2.57;;;1.07;;
9100;SDS011;4586;52.518;13.486;2022-12-07T21:55:56;2.93;;;1.93;;
9100;SDS011;4586;52.518;13.486;2022-12-07T21:59:57;2.40;;;1.80;;
9100;SDS011;4586;52.518;13.486;2022-12-07T22:03:58;1.13;;;0.90;;
9100;SDS011;4586;52.518;13.486;2022-12-07T22:07:59;4.73;;;2.07;;
9100;SDS011;4586;52.518;13.486;2022-12-07T22:12:00;4.07;;;1.63;;
9100;SDS011;4586;52.518;13.486;2022-12-07T22:16:01;4.57;;;2.33;;
9100;SDS011;4586;52.518;13.486;2022-12-07T22:20:02;2.23;;;1.73;;
9100;SDS011;4586;52.518;13.486;2022-12-07T22:24:04;3.27;;;2.10;;
9100;SDS011;4586;52.518;13.486;2022-12-07T22:28:05;2.93;;;2.00;;
9100;SDS011;4586;52.518;13.486;2022-12-07T22:32:06;4.77;;;2.00;;
9100;SDS011;4586;52.518;13.486;2022-12-07T22:36:07;4.50;;;2.30;;
9100;SDS011;4586;52.518;13.486;2022-12-07T22:40:09;4.50;;;2.30;;
9100;SDS011;4586;52.518;13.486;2022-12-07T22:44:10;3.63;;;1.40;;
9100;SDS011;4586;52.518;13.486;2022-12-07T22:48:11;4.67;;;2.23;;
9100;SDS011;4586;52.518;13.486;2022-12-07T22:52:12;1.43;;;1.30;;
9100;SDS011;4586;52.518;13.486;2022-12-07T22:56:13;4.07;;;1.53;;
9100;SDS011;4586;52.518;13.486;2022-12-07T23:00:14;2.50;;;1.70;;
9100;SDS011;4586;52.518;13.486;2022-12-07T23:04:15;4.13;;;2.47;;
9100;SDS011;4586;52.518;13.486;2022-12-07T23:08:16;3.07;;;2.23;;
9100;SDS011;4586;52.518;13.486;2022-12-07T23:12:17;5.17;;;3.13;;
9100;SDS011;4586;52.518;13.486;2022-12-07T23:16:18;2.53;;;2.03;;
9100;SDS011;4586;52.518;13.486;2022-12-07T23:20:19;5.70;;;2.53;;
9100;SDS011;4586;52.518;13.486;2022-12-07T23:24:20;3.40;;;2.67;;
9100;SDS011;4586;52.518;13.486;2022-12-07T23:28:21;4.87;;;2.67;;
9100;SDS011;4586;52.518;13.486;2022-12-07T23:32:22;6.27;;;2.73;;
9100;SDS011;4586;52.518;13.486;2022-12-07T23:36:24;4.27;;;2.60;;
9100;SDS011;4586;52.518;13.486;2022-12-07T23:40:25;3.93;;;2.77;;
9100;SDS011;4586;52.518;13.486;2022-12-07T23:44:26;4.33;;;2.30;;
9100;SDS011;4586;52.518;13.486;2022-12-07T23:48:27;4.93;;;2.93;;
9100;SDS011;4586;52.518;13.486;2022-12-07T23:52:29;6.50;;;3.23;;
9100;SDS011;4586;52.518;13.486;2022-12-07T23:56:31;3.10;;;2.60;;
